createdAt,value
2017-10-23T00:00:51.245Z,96740.41
2017-10-23T00:03:17.315Z,96746.16
2017-10-23T00:05:43.378Z,96754.12
2017-10-23T00:08:09.462Z,96747.86
2017-10-23T00:10:35.491Z,96756.54
2017-10-23T00:13:01.564Z,96754.21
2017-10-23T00:15:27.850Z,96746.56
2017-10-23T00:17:53.888Z,96748.81
2017-10-23T00:20:20.023Z,96752.89
2017-10-23T00:22:46.057Z,96754.53
2017-10-23T00:25:12.181Z,96750.26
2017-10-23T00:27:38.276Z,96756.83
2017-10-23T00:30:04.366Z,96748.09
2017-10-23T00:32:30.469Z,96748.19
2017-10-23T00:34:56.554Z,96751.36
2017-10-23T00:37:22.638Z,96747.93
2017-10-23T00:39:48.723Z,96745.41
2017-10-23T00:42:14.719Z,96746.70
2017-10-23T00:44:40.851Z,96752.04
2017-10-23T00:47:06.934Z,96751.75
2017-10-23T00:49:32.994Z,96749.10
2017-10-23T00:51:59.102Z,96754.05
2017-10-23T00:54:25.119Z,96752.73
2017-10-23T00:56:51.154Z,96752.58
2017-10-23T00:59:17.210Z,96754.95
2017-10-23T01:01:43.320Z,96747.94
2017-10-23T01:04:09.419Z,96745.05
2017-10-23T01:06:35.518Z,96738.58
2017-10-23T01:09:01.559Z,96745.21
2017-10-23T01:11:27.658Z,96748.97
2017-10-23T01:13:53.777Z,96749.66
2017-10-23T01:16:19.933Z,96742.12
2017-10-23T01:18:45.983Z,96741.05
2017-10-23T01:21:12.051Z,96740.82
2017-10-23T01:23:38.174Z,96750.34
2017-10-23T01:26:04.220Z,96753.97
2017-10-23T01:28:30.298Z,96750.88
2017-10-23T01:30:56.344Z,96749.95
2017-10-23T01:33:22.394Z,96752.50
2017-10-23T01:35:48.494Z,96756.05
2017-10-23T01:38:14.490Z,96760.73
2017-10-23T01:40:40.540Z,96756.82
2017-10-23T01:43:06.606Z,96767.28
2017-10-23T01:45:32.631Z,96771.91
2017-10-23T01:47:58.722Z,96767.20
2017-10-23T01:50:24.772Z,96769.25
2017-10-23T01:52:50.954Z,96771.31
2017-10-23T01:55:17.014Z,96773.45
2017-10-23T01:57:43.079Z,96772.48
2017-10-23T02:00:09.101Z,96771.47
2017-10-23T02:02:35.185Z,96769.84
2017-10-23T02:05:01.315Z,96770.23
2017-10-23T02:07:27.383Z,96784.66
2017-10-23T02:09:53.482Z,96775.38
2017-10-23T02:12:19.531Z,96776.37
2017-10-23T02:14:45.588Z,96779.80
2017-10-23T02:17:11.716Z,96779.89
2017-10-23T02:19:37.751Z,96782.72
2017-10-23T02:22:03.862Z,96776.50
2017-10-23T02:24:29.966Z,96777.12
2017-10-23T02:26:56.061Z,96779.20
2017-10-23T02:29:22.143Z,96771.73
2017-10-23T02:31:48.162Z,96789.20
2017-10-23T02:34:14.251Z,96790.23
2017-10-23T02:36:40.327Z,96794.90
2017-10-23T02:39:06.430Z,96792.70
2017-10-23T02:41:32.555Z,96796.06
2017-10-23T02:43:58.618Z,96800.21
2017-10-23T02:46:24.687Z,96801.30
2017-10-23T02:48:50.877Z,96800.01
2017-10-23T02:51:16.964Z,96804.59
2017-10-23T02:53:43.127Z,96808.12
2017-10-23T02:56:09.199Z,96806.98
2017-10-23T02:58:35.252Z,96815.77
2017-10-23T03:01:01.366Z,96807.45
2017-10-23T03:03:27.466Z,96813.11
2017-10-23T03:05:53.535Z,96808.37
2017-10-23T03:08:19.547Z,96807.30
2017-10-23T03:10:45.595Z,96806.86
2017-10-23T03:13:11.754Z,96809.78
2017-10-23T03:15:37.786Z,96813.91
2017-10-23T03:18:03.855Z,96815.83
2017-10-23T03:20:29.939Z,96837.94
2017-10-23T03:22:55.988Z,96821.52
2017-10-23T03:25:22.086Z,96815.98
2017-10-23T03:27:48.133Z,96814.22
2017-10-23T03:30:14.203Z,96821.25
2017-10-23T03:32:40.256Z,96823.96
2017-10-23T03:35:06.324Z,96827.34
2017-10-23T03:37:32.521Z,96832.02
2017-10-23T03:39:58.599Z,96835.27
2017-10-23T03:42:24.704Z,96836.98
2017-10-23T03:44:50.814Z,96832.64
2017-10-23T03:47:16.834Z,96838.00
2017-10-23T03:49:42.886Z,96843.19
2017-10-23T03:52:08.925Z,96852.77
2017-10-23T03:54:34.964Z,96852.41
2017-10-23T03:57:01.011Z,96853.73
2017-10-23T03:59:27.030Z,96858.44
2017-10-23T04:01:53.133Z,96854.23
2017-10-23T04:04:19.193Z,96858.10
2017-10-23T04:06:45.323Z,96862.84
2017-10-23T04:09:11.386Z,96858.55
2017-10-23T04:11:37.431Z,96859.73
2017-10-23T04:14:03.504Z,96860.68
2017-10-23T04:16:29.583Z,96860.13
2017-10-23T04:18:55.638Z,96862.59
2017-10-23T04:21:22.040Z,96860.92
2017-10-23T04:23:48.107Z,96852.75
2017-10-23T04:26:14.115Z,96864.75
2017-10-23T04:28:40.490Z,96866.39
2017-10-23T04:31:06.515Z,96865.80
2017-10-23T04:33:32.551Z,96871.11
2017-10-23T04:35:58.610Z,96862.77
2017-10-23T04:38:24.635Z,96864.23
2017-10-23T04:40:51.090Z,96865.99
2017-10-23T04:43:17.149Z,96863.06
2017-10-23T04:45:43.215Z,96869.31
2017-10-23T04:48:09.299Z,96860.08
2017-10-23T04:50:35.341Z,96866.27
2017-10-23T04:53:01.735Z,96868.52
2017-10-23T04:55:27.786Z,96869.17
2017-10-23T04:57:53.808Z,96862.45
2017-10-23T05:00:19.983Z,96863.84
2017-10-23T05:02:46.088Z,96868.30
2017-10-23T05:05:12.497Z,96864.09
2017-10-23T05:07:38.546Z,96866.97
2017-10-23T05:10:04.627Z,96869.47
2017-10-23T05:12:30.778Z,96873.45
2017-10-23T05:14:56.899Z,96876.56
2017-10-23T05:17:23.339Z,96881.70
2017-10-23T05:19:49.396Z,96884.63
2017-10-23T05:22:15.524Z,96881.16
2017-10-23T05:24:41.931Z,96885.96
2017-10-23T05:27:07.991Z,96883.63
2017-10-23T05:29:34.047Z,96884.22
2017-10-23T05:32:00.163Z,96875.97
2017-10-23T05:34:26.155Z,96882.95
2017-10-23T05:36:52.651Z,96873.39
2017-10-23T05:39:18.695Z,96877.06
2017-10-23T05:41:44.734Z,96871.11
2017-10-23T05:44:10.837Z,96881.14
2017-10-23T05:46:36.881Z,96883.88
2017-10-23T05:49:03.300Z,96889.63
2017-10-23T05:51:29.362Z,96895.48
2017-10-23T05:53:55.382Z,96892.75
2017-10-23T05:56:21.902Z,96893.30
2017-10-23T05:58:47.942Z,96894.27
2017-10-23T06:01:14.094Z,96904.02
2017-10-23T06:03:40.485Z,96908.20
2017-10-23T06:06:06.531Z,96906.94
2017-10-23T06:08:32.712Z,96912.16
2017-10-23T06:10:58.766Z,96905.53
2017-10-23T06:13:24.870Z,96905.28
2017-10-23T06:15:51.318Z,96905.92
2017-10-23T06:18:17.438Z,96907.95
2017-10-23T06:20:43.523Z,96909.09
2017-10-23T06:23:09.697Z,96918.39
2017-10-23T06:25:35.755Z,96916.98
2017-10-23T06:28:02.266Z,96927.24
2017-10-23T06:30:28.315Z,96923.02
2017-10-23T06:32:54.341Z,96931.34
2017-10-23T06:35:20.463Z,96931.62
2017-10-23T06:37:46.477Z,96930.63
2017-10-23T06:40:12.986Z,96924.91
2017-10-23T06:42:39.056Z,96926.38
2017-10-23T06:45:05.108Z,96928.98
2017-10-23T06:47:31.139Z,96929.84
2017-10-23T06:49:57.176Z,96924.91
2017-10-23T06:52:23.522Z,96925.91
2017-10-23T06:54:49.625Z,96929.23
2017-10-23T06:57:15.686Z,96922.64
2017-10-23T06:59:42.283Z,96922.00
2017-10-23T07:02:08.406Z,96928.87
2017-10-23T07:04:34.523Z,96920.96
2017-10-23T07:07:01.026Z,96924.78
2017-10-23T07:09:27.136Z,96913.23
2017-10-23T07:11:53.170Z,96918.44
2017-10-23T07:14:19.594Z,96923.20
2017-10-23T07:16:45.687Z,96930.30
2017-10-23T07:19:11.746Z,96930.53
2017-10-23T07:21:38.263Z,96945.14
2017-10-23T07:24:04.314Z,96945.26
2017-10-23T07:26:30.426Z,96952.06
2017-10-23T07:28:56.871Z,96946.08
2017-10-23T07:31:22.935Z,96946.65
2017-10-23T07:33:49.042Z,96940.70
2017-10-23T07:36:15.531Z,96940.43
2017-10-23T07:38:41.615Z,96947.20
2017-10-23T07:41:08.343Z,96946.35
2017-10-23T07:43:34.544Z,96938.46
2017-10-23T07:46:00.631Z,96938.66
2017-10-23T07:48:27.138Z,96948.79
2017-10-23T07:50:53.222Z,96946.01
2017-10-23T07:53:19.302Z,96944.94
2017-10-23T07:55:45.812Z,96948.34
2017-10-23T07:58:11.923Z,96944.30
2017-10-23T08:00:38.003Z,96945.72
2017-10-23T08:03:11.579Z,96952.57
2017-10-23T08:05:37.667Z,96953.17
2017-10-23T08:08:03.701Z,96957.86
2017-10-23T08:10:29.799Z,96960.78
2017-10-23T08:12:55.858Z,96961.70
2017-10-23T08:15:22.315Z,96966.09
2017-10-23T08:17:48.478Z,96962.58
2017-10-23T08:20:14.615Z,96959.25
2017-10-23T08:22:41.114Z,96962.66
2017-10-23T08:25:07.178Z,96964.04
2017-10-23T08:27:33.254Z,96966.87
2017-10-23T08:29:59.338Z,96964.45
2017-10-23T08:32:25.468Z,96964.51
2017-10-23T08:34:51.973Z,96967.92
2017-10-23T08:37:18.127Z,96967.06
2017-10-23T08:39:44.202Z,96967.28
2017-10-23T08:42:10.317Z,96971.11
2017-10-23T08:44:36.408Z,96971.47
2017-10-23T08:47:02.895Z,96966.92
2017-10-23T08:49:29.011Z,96971.71
2017-10-23T08:51:55.083Z,96969.83
2017-10-23T08:54:21.154Z,96981.74
2017-10-23T08:56:47.219Z,96972.08
2017-10-23T08:59:13.652Z,96980.16
2017-10-23T09:01:39.748Z,96976.71
2017-10-23T09:04:05.819Z,96976.27
2017-10-23T09:06:32.233Z,96979.65
2017-10-23T09:08:58.339Z,96980.16
2017-10-23T09:11:24.374Z,96988.52
2017-10-23T09:13:50.529Z,96986.42
2017-10-23T09:16:16.626Z,96988.91
2017-10-23T09:18:43.044Z,96980.26
2017-10-23T09:21:09.209Z,96978.84
2017-10-23T09:23:35.370Z,96979.08
2017-10-23T09:26:01.858Z,96988.06
2017-10-23T09:28:27.990Z,96982.06
2017-10-23T09:30:54.095Z,96982.04
2017-10-23T09:33:20.130Z,96986.21
2017-10-23T09:35:46.173Z,96992.91
2017-10-23T09:38:12.710Z,96989.27
2017-10-23T09:40:38.810Z,96988.59
2017-10-23T09:43:04.883Z,96994.72
2017-10-23T09:45:31.271Z,96992.75
2017-10-23T09:47:57.374Z,96993.05
2017-10-23T09:50:23.461Z,96993.17
2017-10-23T09:52:49.570Z,96995.73
2017-10-23T09:55:15.639Z,96994.97
2017-10-23T09:57:42.122Z,97002.12
2017-10-23T10:00:08.227Z,97001.56
2017-10-23T10:02:34.304Z,97006.87
2017-10-23T10:05:00.435Z,97002.64
2017-10-23T10:07:26.499Z,97007.76
2017-10-23T10:09:52.975Z,96999.05
2017-10-23T10:12:19.051Z,97016.61
2017-10-23T10:14:45.154Z,97013.44
2017-10-23T10:17:11.275Z,97015.80
2017-10-23T10:19:37.369Z,97015.95
2017-10-23T10:22:03.742Z,97017.72
2017-10-23T10:24:29.839Z,97022.99
2017-10-23T10:26:55.973Z,97021.94
2017-10-23T10:29:22.398Z,97022.75
2017-10-23T10:31:48.492Z,97019.25
2017-10-23T10:34:14.526Z,97026.10
2017-10-23T10:39:32.986Z,97026.42
2017-10-23T10:41:59.483Z,97029.37
2017-10-23T10:44:25.562Z,97028.34
2017-10-23T10:46:51.639Z,97031.09
2017-10-23T10:49:17.833Z,97035.60
2017-10-23T10:51:43.907Z,97023.53
2017-10-23T10:54:10.418Z,97026.91
2017-10-23T10:56:36.527Z,97030.06
2017-10-23T10:59:02.610Z,97034.70
2017-10-23T11:01:28.732Z,97027.72
2017-10-23T11:03:54.826Z,97031.80
2017-10-23T11:06:21.239Z,97024.45
2017-10-23T11:08:47.330Z,97037.73
2017-10-23T11:11:13.480Z,97034.25
2017-10-23T11:13:39.519Z,97033.89
2017-10-23T11:16:05.606Z,97029.87
2017-10-23T11:18:32.089Z,97023.84
2017-10-23T11:20:58.274Z,97030.50
2017-10-23T11:23:24.367Z,97030.81
2017-10-23T11:25:50.448Z,97032.46
2017-10-23T11:28:16.546Z,97028.92
2017-10-23T11:30:43.034Z,97041.93
2017-10-23T11:33:09.119Z,97025.19
2017-10-23T11:35:35.202Z,97031.10
2017-10-23T11:38:01.674Z,97035.84
2017-10-23T11:40:27.742Z,97030.65
2017-10-23T11:42:53.885Z,97032.21
2017-10-23T11:45:20.082Z,97030.79
2017-10-23T11:47:46.174Z,97033.73
2017-10-23T11:50:12.729Z,97030.78
2017-10-23T11:52:38.823Z,97032.12
2017-10-23T11:55:04.894Z,97031.83
2017-10-23T11:57:31.361Z,97019.70
2017-10-23T11:59:57.462Z,97037.15
2017-10-23T12:02:23.594Z,97037.71
2017-10-23T12:04:49.693Z,97038.56
2017-10-23T12:07:15.786Z,97041.34
2017-10-23T12:09:42.310Z,97047.81
2017-10-23T12:12:08.346Z,97048.09
2017-10-23T12:14:34.391Z,97050.22
2017-10-23T12:17:00.480Z,97046.81
2017-10-23T12:19:26.592Z,97055.71
2017-10-23T12:21:53.090Z,97053.92
2017-10-23T12:24:19.183Z,97060.08
2017-10-23T12:26:45.306Z,97058.06
2017-10-23T12:29:11.706Z,97059.71
2017-10-23T12:31:37.723Z,97052.47
2017-10-23T12:34:03.775Z,97051.62
2017-10-23T12:36:29.877Z,97057.00
2017-10-23T12:38:55.995Z,97055.65
2017-10-23T12:41:22.417Z,97051.17
2017-10-23T12:43:48.589Z,97053.95
2017-10-23T12:46:14.690Z,97049.58
2017-10-23T12:48:41.077Z,97052.54
2017-10-23T12:51:07.097Z,97048.34
2017-10-23T12:53:33.203Z,97048.14
2017-10-23T12:55:59.293Z,97045.11
2017-10-23T12:58:25.360Z,97041.50
2017-10-23T13:00:51.816Z,97049.00
2017-10-23T13:03:17.883Z,97045.27
2017-10-23T13:05:43.963Z,97050.13
2017-10-23T13:08:10.109Z,97050.89
2017-10-23T13:10:36.186Z,97048.45
2017-10-23T13:13:02.570Z,97054.28
2017-10-23T13:15:28.682Z,97051.44
2017-10-23T13:17:54.774Z,97044.14
2017-10-23T13:20:20.967Z,97048.18
2017-10-23T13:22:47.093Z,97055.09
2017-10-23T13:25:13.503Z,97059.53
2017-10-23T13:27:39.590Z,97061.98
2017-10-23T13:30:05.630Z,97063.26
2017-10-23T13:32:31.723Z,97053.13
2017-10-23T13:34:57.826Z,97066.25
2017-10-23T13:37:24.338Z,97062.29
2017-10-23T13:39:50.454Z,97062.25
2017-10-23T13:42:16.498Z,97059.33
2017-10-23T13:44:42.554Z,97076.01
2017-10-23T13:47:08.686Z,97065.05
2017-10-23T13:49:35.200Z,97067.92
2017-10-23T13:52:01.299Z,97070.27
2017-10-23T13:54:27.327Z,97072.27
2017-10-23T13:56:53.394Z,97075.95
2017-10-23T13:59:19.504Z,97071.40
2017-10-23T14:01:45.941Z,97074.56
2017-10-23T14:04:12.002Z,97075.63
2017-10-23T14:06:38.154Z,97064.88
2017-10-23T14:09:04.616Z,97079.48
2017-10-23T14:11:30.713Z,97072.53
2017-10-23T14:13:56.809Z,97080.31
2017-10-23T14:16:23.320Z,97078.17
2017-10-23T14:18:49.378Z,97078.34
2017-10-23T14:21:15.378Z,97081.38
2017-10-23T14:23:41.439Z,97084.39
2017-10-23T14:26:07.466Z,97086.55
2017-10-23T14:28:33.958Z,97084.55
2017-10-23T14:30:59.986Z,97085.48
2017-10-23T14:33:26.058Z,97086.20
2017-10-23T14:35:52.470Z,97078.26
2017-10-23T14:38:18.554Z,97088.88
2017-10-23T14:40:44.628Z,97095.48
2017-10-23T14:43:10.729Z,97094.90
2017-10-23T14:45:36.787Z,97103.49
2017-10-23T14:50:29.209Z,97103.75
2017-10-23T14:52:55.261Z,97098.21
2017-10-23T14:55:21.758Z,97104.27
2017-10-23T14:57:47.858Z,97105.27
2017-10-23T15:00:14.095Z,97098.58
2017-10-23T15:02:40.255Z,97101.83
2017-10-23T15:05:06.367Z,97099.68
2017-10-23T15:07:32.537Z,97107.32
2017-10-23T15:09:58.667Z,97118.13
2017-10-23T15:12:24.821Z,97113.75
2017-10-23T15:14:50.867Z,97116.53
2017-10-23T15:17:16.989Z,97121.25
2017-10-23T15:19:43.045Z,97123.66
2017-10-23T15:22:09.159Z,97117.34
2017-10-23T15:24:35.174Z,97126.61
2017-10-23T15:27:01.223Z,97121.63
2017-10-23T15:29:27.318Z,97133.02
2017-10-23T15:31:53.390Z,97130.77
2017-10-23T15:34:19.455Z,97130.89
2017-10-23T15:36:45.534Z,97136.48
2017-10-23T15:39:11.556Z,97134.22
2017-10-23T15:41:37.626Z,97144.63
2017-10-23T15:44:03.739Z,97146.67
2017-10-23T15:46:29.853Z,97151.47
2017-10-23T15:48:55.947Z,97155.34
2017-10-23T15:51:22.075Z,97163.11
2017-10-23T15:53:48.209Z,97158.91
2017-10-23T15:56:14.459Z,97154.69
2017-10-23T15:58:40.563Z,97166.47
2017-10-23T16:01:06.661Z,97160.20
2017-10-23T16:03:32.810Z,97162.27
2017-10-23T16:05:58.943Z,97160.44
2017-10-23T16:08:24.985Z,97166.13
2017-10-23T16:10:51.134Z,97165.66
2017-10-23T16:13:17.211Z,97172.55
2017-10-23T16:15:43.268Z,97176.06
2017-10-23T16:18:09.378Z,97179.66
2017-10-23T16:20:35.479Z,97183.41
2017-10-23T16:23:01.613Z,97181.73
2017-10-23T16:25:27.655Z,97181.73
2017-10-23T16:27:53.772Z,97184.88
2017-10-23T16:30:20.855Z,97185.36
2017-10-23T16:32:46.923Z,97185.03
2017-10-23T16:35:13.047Z,97188.05
2017-10-23T16:37:39.190Z,97192.79
2017-10-23T16:40:05.294Z,97191.73
2017-10-23T16:42:31.412Z,97190.03
2017-10-23T16:44:57.507Z,97199.73
2017-10-23T16:47:23.617Z,97192.12
2017-10-23T16:49:49.748Z,97193.48
2017-10-23T16:52:15.813Z,97198.75
2017-10-23T16:54:41.981Z,97200.19
2017-10-23T16:57:08.054Z,97210.73
2017-10-23T16:59:34.164Z,97211.44
2017-10-23T17:02:00.342Z,97219.20
2017-10-23T17:04:26.459Z,97218.43
2017-10-23T17:06:52.581Z,97218.45
2017-10-23T17:09:18.679Z,97221.92
2017-10-23T17:11:44.825Z,97222.31
2017-10-23T17:14:10.946Z,97228.69
2017-10-23T17:16:37.049Z,97230.41
2017-10-23T17:19:03.172Z,97235.05
2017-10-23T17:21:29.256Z,97243.98
2017-10-23T17:23:55.516Z,97241.00
2017-10-23T17:26:21.666Z,97247.06
2017-10-23T17:28:47.784Z,97244.00
2017-10-23T17:31:13.908Z,97253.23
2017-10-23T17:33:40.001Z,97259.43
2017-10-23T17:36:06.198Z,97254.66
2017-10-23T17:38:32.259Z,97259.77
2017-10-23T17:40:58.354Z,97262.52
2017-10-23T17:43:24.546Z,97262.14
2017-10-23T17:45:50.694Z,97256.89
2017-10-23T17:48:16.859Z,97261.58
2017-10-23T17:50:42.947Z,97263.56
2017-10-23T17:53:09.051Z,97262.01
2017-10-23T17:55:35.244Z,97261.52
2017-10-23T17:58:01.346Z,97263.62
2017-10-23T18:00:27.551Z,97270.66
2017-10-23T18:02:53.667Z,97267.87
2017-10-23T18:05:19.784Z,97268.89
2017-10-23T18:07:45.881Z,97269.73
2017-10-23T18:10:12.018Z,97269.65
2017-10-23T18:12:38.232Z,97280.13
2017-10-23T18:15:04.307Z,97278.95
2017-10-23T18:17:30.359Z,97277.39
2017-10-23T18:19:56.519Z,97273.61
2017-10-23T18:22:22.681Z,97278.23
2017-10-23T18:24:48.827Z,97281.25
2017-10-23T18:27:15.028Z,97282.69
2017-10-23T18:29:41.168Z,97285.33
2017-10-23T18:32:07.334Z,97285.96
2017-10-23T18:34:33.391Z,97286.91
2017-10-23T18:36:59.570Z,97288.86
2017-10-23T18:39:25.683Z,97289.84
2017-10-23T18:41:51.799Z,97285.28
2017-10-23T18:44:17.976Z,97291.23
2017-10-23T18:46:44.190Z,97288.11
2017-10-23T18:49:10.490Z,97296.51
2017-10-23T18:51:36.742Z,97291.64
2017-10-23T18:54:03.067Z,97295.39
2017-10-23T18:56:29.311Z,97295.44
2017-10-23T18:58:55.615Z,97299.78
2017-10-23T19:01:21.810Z,97305.78
2017-10-23T19:03:47.931Z,97304.27
2017-10-23T19:06:14.170Z,97302.08
2017-10-23T19:08:40.413Z,97297.29
2017-10-23T19:11:07.532Z,97301.06
2017-10-23T19:13:33.851Z,97304.56
2017-10-23T19:16:00.233Z,97307.05
2017-10-23T19:18:27.215Z,97307.55
2017-10-23T19:20:53.554Z,97311.59
2017-10-23T19:23:19.904Z,97312.09
2017-10-23T19:25:46.191Z,97309.95
2017-10-23T19:28:12.438Z,97313.84
2017-10-23T19:30:38.762Z,97313.50
2017-10-23T19:33:05.024Z,97319.55
2017-10-23T19:35:31.292Z,97316.94
2017-10-23T19:37:57.524Z,97314.67
2017-10-23T19:40:23.770Z,97318.92
2017-10-23T19:42:50.030Z,97316.34
2017-10-23T19:45:16.274Z,97321.03
2017-10-23T19:47:42.470Z,97326.30
2017-10-23T19:50:08.589Z,97327.42
2017-10-23T19:52:34.849Z,97327.38
2017-10-23T19:55:01.009Z,97329.86
2017-10-23T19:57:27.236Z,97332.00
2017-10-23T19:59:53.359Z,97333.81
2017-10-23T20:02:19.586Z,97331.77
2017-10-23T20:04:45.738Z,97336.55
2017-10-23T20:07:11.885Z,97331.58
2017-10-23T20:09:38.043Z,97337.72
2017-10-23T20:12:04.270Z,97335.62
2017-10-23T20:14:30.444Z,97337.91
2017-10-23T20:16:56.670Z,97342.45
2017-10-23T20:19:22.795Z,97342.70
2017-10-23T20:21:48.922Z,97345.38
2017-10-23T20:24:15.046Z,97347.63
2017-10-23T20:26:41.218Z,97345.09
2017-10-23T20:29:07.322Z,97353.00
2017-10-23T20:31:33.403Z,97356.27
2017-10-23T20:33:59.502Z,97356.71
2017-10-23T20:36:25.620Z,97354.38
2017-10-23T20:38:51.743Z,97352.66
2017-10-23T20:41:17.846Z,97362.97
2017-10-23T20:43:43.995Z,97362.23
2017-10-23T20:46:10.111Z,97358.42
2017-10-23T20:48:36.221Z,97359.29
2017-10-23T20:51:02.323Z,97365.10
2017-10-23T20:53:28.436Z,97369.79
2017-10-23T20:55:54.527Z,97365.49
2017-10-23T20:58:20.700Z,97366.42
2017-10-23T21:00:46.780Z,97363.78
2017-10-23T21:03:13.015Z,97365.34
2017-10-23T21:05:39.110Z,97363.10
2017-10-23T21:08:05.198Z,97365.39
2017-10-23T21:10:32.088Z,97368.97
2017-10-23T21:12:58.183Z,97371.75
2017-10-23T21:15:24.331Z,97365.11
2017-10-23T21:17:50.512Z,97369.84
2017-10-23T21:20:16.608Z,97368.03
2017-10-23T21:22:42.717Z,97366.86
2017-10-23T21:25:08.759Z,97368.53
2017-10-23T21:27:34.879Z,97375.27
2017-10-23T21:30:00.955Z,97376.72
2017-10-23T21:32:27.054Z,97375.26
2017-10-23T21:34:53.175Z,97380.16
2017-10-23T21:37:19.550Z,97376.64
2017-10-23T21:39:45.623Z,97375.27
2017-10-23T21:42:11.750Z,97380.06
2017-10-23T21:44:37.796Z,97380.06
2017-10-23T21:47:09.566Z,97384.45
2017-10-23T21:49:35.659Z,97389.43
2017-10-23T21:52:01.750Z,97389.13
2017-10-23T21:54:27.838Z,97396.17
2017-10-23T21:56:53.946Z,97391.43
2017-10-23T21:59:20.037Z,97388.30
2017-10-23T22:01:46.067Z,97395.09
2017-10-23T22:04:12.127Z,97391.92
2017-10-23T22:06:38.263Z,97390.75
2017-10-23T22:09:04.539Z,97400.86
2017-10-23T22:11:30.651Z,97403.88
2017-10-23T22:13:56.918Z,97400.41
2017-10-23T22:16:23.015Z,97402.41
2017-10-23T22:18:49.111Z,97400.12
2017-10-23T22:21:15.267Z,97406.12
2017-10-23T22:23:41.376Z,97405.59
2017-10-23T22:26:07.479Z,97406.27
2017-10-23T22:28:33.539Z,97403.84
2017-10-23T22:30:59.642Z,97398.95
2017-10-23T22:33:25.790Z,97402.84
2017-10-23T22:35:51.898Z,97411.25
2017-10-23T22:38:17.963Z,97406.02
2017-10-23T22:40:44.013Z,97410.77
2017-10-23T22:43:10.071Z,97406.97
2017-10-23T22:45:36.180Z,97408.66
2017-10-23T22:48:02.323Z,97408.53
2017-10-23T22:50:28.370Z,97412.56
2017-10-23T22:52:54.467Z,97415.35
2017-10-23T22:55:20.499Z,97420.19
2017-10-23T22:57:46.607Z,97421.41
2017-10-23T23:00:12.711Z,97415.55
2017-10-23T23:02:38.860Z,97422.79
2017-10-23T23:05:04.983Z,97423.18
2017-10-23T23:07:31.115Z,97429.58
2017-10-23T23:09:57.238Z,97429.23
2017-10-23T23:12:23.334Z,97436.50
2017-10-23T23:14:49.350Z,97427.80
2017-10-23T23:17:15.431Z,97431.13
2017-10-23T23:19:41.539Z,97439.44
2017-10-23T23:22:07.592Z,97446.47
2017-10-23T23:24:33.714Z,97439.92
2017-10-23T23:26:59.788Z,97440.06
2017-10-23T23:29:25.861Z,97436.64
2017-10-23T23:31:51.952Z,97447.84
2017-10-23T23:34:18.033Z,97443.35
2017-10-23T23:36:44.145Z,97444.02
2017-10-23T23:39:10.175Z,97443.15
2017-10-23T23:41:36.219Z,97440.13
2017-10-23T23:44:02.455Z,97442.70
2017-10-23T23:46:28.537Z,97441.63
2017-10-23T23:48:54.825Z,97442.55
2017-10-23T23:51:20.903Z,97438.27
2017-10-23T23:53:46.983Z,97442.08
2017-10-23T23:56:13.117Z,97451.55
2017-10-23T23:58:39.195Z,97446.08
